createdAt,value
2022-07-26T00:01:35.832Z,2.45
2022-07-26T00:04:21.629Z,2.80
2022-07-26T00:07:08.028Z,2.38
2022-07-26T00:09:53.462Z,2.58
2022-07-26T00:12:39.241Z,2.72
2022-07-26T00:15:25.303Z,2.65
2022-07-26T00:18:12.044Z,2.63
2022-07-26T00:20:58.085Z,2.80
2022-07-26T00:23:43.687Z,2.75
2022-07-26T00:26:29.015Z,2.78
2022-07-26T00:29:14.493Z,3.17
2022-07-26T00:31:59.875Z,2.75
2022-07-26T00:34:45.632Z,2.58
2022-07-26T00:37:31.198Z,2.63
2022-07-26T00:40:17.291Z,2.70
2022-07-26T00:43:03.274Z,2.38
2022-07-26T00:45:50.646Z,2.47
2022-07-26T00:48:36.554Z,3.00
2022-07-26T00:51:22.614Z,2.70
2022-07-26T00:54:08.305Z,2.47
2022-07-26T00:56:55.310Z,2.60
2022-07-26T00:59:42.181Z,2.75
2022-07-26T01:02:27.759Z,2.50
2022-07-26T01:05:13.165Z,2.47
2022-07-26T01:07:59.002Z,2.55
2022-07-26T01:10:44.363Z,2.40
2022-07-26T01:13:34.765Z,2.40
2022-07-26T01:16:20.854Z,2.50
2022-07-26T01:19:06.187Z,2.92
2022-07-26T01:21:52.051Z,2.70
2022-07-26T01:24:38.070Z,2.70
2022-07-26T01:27:23.494Z,2.67
2022-07-26T01:30:11.501Z,2.55
2022-07-26T01:32:56.671Z,3.15
2022-07-26T01:35:42.135Z,3.17
2022-07-26T01:38:27.592Z,2.50
2022-07-26T01:41:12.880Z,2.75
2022-07-26T01:43:58.318Z,2.30
2022-07-26T01:46:43.663Z,2.22
2022-07-26T01:49:29.067Z,2.28
2022-07-26T01:52:14.577Z,2.30
2022-07-26T01:55:00.041Z,2.55
2022-07-26T01:57:49.034Z,2.90
2022-07-26T02:00:34.883Z,2.35
2022-07-26T02:03:20.614Z,2.50
2022-07-26T02:06:07.213Z,3.55
2022-07-26T02:08:52.981Z,3.30
2022-07-26T02:11:39.126Z,2.97
2022-07-26T02:14:25.528Z,2.40
2022-07-26T02:17:13.717Z,2.65
2022-07-26T02:19:58.931Z,2.70
2022-07-26T02:22:45.084Z,2.80
2022-07-26T02:25:30.998Z,3.13
2022-07-26T02:28:17.360Z,2.83
2022-07-26T02:31:02.859Z,2.25
2022-07-26T02:33:52.123Z,2.90
2022-07-26T02:36:38.081Z,2.33
2022-07-26T02:39:27.778Z,2.58
2022-07-26T02:42:13.057Z,2.80
2022-07-26T02:44:58.723Z,3.00
2022-07-26T02:47:52.498Z,2.47
2022-07-26T02:50:38.968Z,2.47
2022-07-26T02:53:25.345Z,2.58
2022-07-26T02:56:11.055Z,2.50
2022-07-26T02:58:56.759Z,2.95
2022-07-26T03:01:42.429Z,2.80
2022-07-26T03:04:27.869Z,2.90
2022-07-26T03:07:13.308Z,2.22
2022-07-26T03:09:59.367Z,2.22
2022-07-26T03:12:45.125Z,2.72
2022-07-26T03:15:30.945Z,2.80
2022-07-26T03:18:16.960Z,2.55
2022-07-26T03:21:03.175Z,3.25
2022-07-26T03:23:48.816Z,3.05
2022-07-26T03:26:34.239Z,2.88
2022-07-26T03:29:19.659Z,2.50
2022-07-26T03:32:05.453Z,2.58
2022-07-26T03:34:51.389Z,2.67
2022-07-26T03:37:45.016Z,2.30
2022-07-26T03:40:31.294Z,2.90
2022-07-26T03:43:21.197Z,2.55
2022-07-26T03:46:08.896Z,2.75
2022-07-26T03:48:54.599Z,2.72
2022-07-26T03:51:40.065Z,2.58
2022-07-26T03:54:25.494Z,3.05
2022-07-26T03:57:11.392Z,2.42
2022-07-26T03:59:57.163Z,2.90
2022-07-26T04:02:43.129Z,2.33
2022-07-26T04:05:29.335Z,2.78
2022-07-26T04:08:17.644Z,2.90
2022-07-26T04:11:03.203Z,3.60
2022-07-26T04:13:48.686Z,2.92
2022-07-26T04:16:36.202Z,2.78
2022-07-26T04:19:24.964Z,3.03
2022-07-26T04:22:10.674Z,3.03
2022-07-26T04:24:56.682Z,2.80
2022-07-26T04:27:42.815Z,2.88
2022-07-26T04:30:29.053Z,2.75
2022-07-26T04:33:14.644Z,2.88
2022-07-26T04:36:01.197Z,2.83
2022-07-26T04:38:47.954Z,3.67
2022-07-26T04:41:33.682Z,3.05
2022-07-26T04:44:19.808Z,3.30
2022-07-26T04:47:06.336Z,3.28
2022-07-26T04:49:52.005Z,3.35
2022-07-26T04:52:37.860Z,3.13
2022-07-26T04:55:24.080Z,3.22
2022-07-26T04:58:10.531Z,3.58
2022-07-26T05:01:09.531Z,3.28
2022-07-26T05:03:56.193Z,3.70
2022-07-26T05:06:42.401Z,2.83
2022-07-26T05:09:29.914Z,3.45
2022-07-26T05:12:16.289Z,4.18
2022-07-26T05:15:01.835Z,3.47
2022-07-26T05:17:50.289Z,3.10
2022-07-26T05:20:37.576Z,3.30
2022-07-26T05:23:23.767Z,2.97
2022-07-26T05:26:11.553Z,2.72
2022-07-26T05:28:57.730Z,2.63
2022-07-26T05:31:43.865Z,2.75
2022-07-26T05:34:30.180Z,3.50
2022-07-26T05:37:16.223Z,2.97
2022-07-26T05:40:02.604Z,2.58
2022-07-26T05:42:49.039Z,2.50
2022-07-26T05:45:35.048Z,2.95
2022-07-26T05:48:21.434Z,2.55
2022-07-26T05:51:09.026Z,2.50
2022-07-26T05:53:55.343Z,2.70
2022-07-26T05:56:41.108Z,2.63
2022-07-26T05:59:27.545Z,2.42
2022-07-26T06:02:14.209Z,2.72
2022-07-26T06:05:00.574Z,3.08
2022-07-26T06:07:46.715Z,2.72
2022-07-26T06:10:32.454Z,2.50
2022-07-26T06:13:18.723Z,2.20
2022-07-26T06:16:05.153Z,2.58
2022-07-26T06:18:52.701Z,2.63
2022-07-26T06:21:38.361Z,2.45
2022-07-26T06:24:24.339Z,2.15
2022-07-26T06:27:11.365Z,2.78
2022-07-26T06:29:57.857Z,2.20
2022-07-26T06:32:46.541Z,2.53
2022-07-26T06:35:34.324Z,2.10
2022-07-26T06:38:19.946Z,2.40
2022-07-26T06:41:06.700Z,2.30
2022-07-26T06:43:52.675Z,2.00
2022-07-26T06:46:38.840Z,2.13
2022-07-26T06:49:24.623Z,1.92
2022-07-26T06:52:11.033Z,1.90
2022-07-26T06:54:57.286Z,1.50
2022-07-26T06:57:50.163Z,2.05
2022-07-26T07:00:37.178Z,2.30
2022-07-26T07:03:26.715Z,1.95
2022-07-26T07:06:14.141Z,1.60
2022-07-26T07:09:00.529Z,1.73
2022-07-26T07:11:51.870Z,1.60
2022-07-26T07:14:44.632Z,1.60
2022-07-26T07:17:34.609Z,1.58
2022-07-26T07:20:21.099Z,1.50
2022-07-26T07:23:08.482Z,1.30
2022-07-26T07:25:54.679Z,1.60
2022-07-26T07:28:42.755Z,1.58
2022-07-26T07:31:47.851Z,1.70
2022-07-26T07:34:34.928Z,1.40
2022-07-26T07:37:22.124Z,1.67
2022-07-26T07:40:10.440Z,1.48
2022-07-26T07:42:56.796Z,1.80
2022-07-26T07:45:43.237Z,1.45
2022-07-26T07:48:34.300Z,1.55
2022-07-26T07:51:21.183Z,1.95
2022-07-26T07:54:07.549Z,1.77
2022-07-26T07:56:56.546Z,1.33
2022-07-26T07:59:42.925Z,1.52
2022-07-26T08:02:29.188Z,2.00
2022-07-26T08:05:15.765Z,1.80
2022-07-26T08:08:03.790Z,1.83
2022-07-26T08:10:52.217Z,1.80
2022-07-26T08:13:39.109Z,1.45
2022-07-26T08:16:25.927Z,1.77
2022-07-26T08:19:12.317Z,2.20
2022-07-26T08:21:58.368Z,1.60
2022-07-26T08:24:47.325Z,2.00
2022-07-26T08:27:40.406Z,1.73
2022-07-26T08:30:27.025Z,1.52
2022-07-26T08:33:13.057Z,1.83
2022-07-26T08:35:58.802Z,1.45
2022-07-26T08:38:47.649Z,1.50
2022-07-26T08:41:34.021Z,1.80
2022-07-26T08:44:19.856Z,1.17
2022-07-26T08:47:05.983Z,1.52
2022-07-26T08:49:55.023Z,1.52
2022-07-26T08:52:44.727Z,1.50
2022-07-26T08:55:44.692Z,1.67
2022-07-26T08:58:36.840Z,1.50
2022-07-26T09:01:22.627Z,1.40
2022-07-26T09:04:31.221Z,1.45
2022-07-26T09:07:19.393Z,1.48
2022-07-26T09:10:11.671Z,1.52
2022-07-26T09:12:58.311Z,1.80
2022-07-26T09:15:44.919Z,1.70
2022-07-26T09:18:31.659Z,1.65
2022-07-26T09:21:33.152Z,1.88
2022-07-26T09:24:36.300Z,1.70
2022-07-26T09:27:26.466Z,2.40
2022-07-26T09:30:13.822Z,1.60
2022-07-26T09:33:05.670Z,1.95
2022-07-26T09:36:21.637Z,1.70
2022-07-26T09:39:07.267Z,1.58
2022-07-26T09:42:17.386Z,1.80
2022-07-26T09:45:00.278Z,1.77
2022-07-26T09:47:46.207Z,1.77
2022-07-26T09:50:33.716Z,2.25
2022-07-26T09:53:22.061Z,1.73
2022-07-26T09:56:08.516Z,1.90
2022-07-26T09:58:54.774Z,1.90
2022-07-26T10:01:40.359Z,2.78
2022-07-26T10:04:26.715Z,1.75
2022-07-26T10:07:12.261Z,1.88
2022-07-26T10:10:04.355Z,1.70
2022-07-26T10:12:52.185Z,1.50
2022-07-26T10:15:50.705Z,2.08
2022-07-26T10:18:35.879Z,2.08
2022-07-26T10:21:32.620Z,1.52
2022-07-26T10:24:28.802Z,1.52
2022-07-26T10:27:41.533Z,1.77
2022-07-26T10:30:35.172Z,1.70
2022-07-26T10:33:25.977Z,2.00
2022-07-26T10:36:39.771Z,1.65
2022-07-26T10:39:27.744Z,1.85
2022-07-26T10:42:15.162Z,1.85
2022-07-26T10:45:18.693Z,1.60
2022-07-26T10:48:24.671Z,1.80
2022-07-26T10:51:25.605Z,1.80
2022-07-26T10:54:14.105Z,1.50
2022-07-26T10:57:02.589Z,1.80
2022-07-26T10:59:56.741Z,1.52
2022-07-26T11:02:44.592Z,1.75
2022-07-26T11:05:33.821Z,1.88
2022-07-26T11:08:19.363Z,1.63
2022-07-26T11:11:05.615Z,1.63
2022-07-26T11:13:51.820Z,1.60
2022-07-26T11:16:39.093Z,1.85
2022-07-26T11:19:26.199Z,1.70
2022-07-26T11:22:12.647Z,2.40
2022-07-26T11:24:58.677Z,1.90
2022-07-26T11:28:00.919Z,1.70
2022-07-26T11:31:00.258Z,1.73
2022-07-26T11:33:51.136Z,1.70
2022-07-26T11:36:43.594Z,1.80
2022-07-26T11:39:32.930Z,1.88
2022-07-26T11:42:22.188Z,1.60
2022-07-26T11:45:11.366Z,1.70
2022-07-26T11:48:01.043Z,1.55
2022-07-26T11:50:48.698Z,1.90
2022-07-26T11:53:38.605Z,1.92
2022-07-26T11:56:24.901Z,2.10
2022-07-26T11:59:14.006Z,2.15
2022-07-26T12:02:01.570Z,1.83
2022-07-26T12:04:47.510Z,2.03
2022-07-26T12:07:33.772Z,1.48
2022-07-26T12:10:20.946Z,1.73
2022-07-26T12:13:13.293Z,2.45
2022-07-26T12:16:00.102Z,2.00
2022-07-26T12:18:51.408Z,2.10
2022-07-26T12:24:41.592Z,1.80
2022-07-26T12:27:32.598Z,1.48
2022-07-26T12:30:18.787Z,1.50
2022-07-26T12:33:05.108Z,2.00
2022-07-26T12:35:51.756Z,2.17
2022-07-26T12:38:41.115Z,1.90
2022-07-26T12:41:39.366Z,1.98
2022-07-26T12:44:25.256Z,2.08
2022-07-26T12:47:11.354Z,1.83
2022-07-26T12:49:58.477Z,1.98
2022-07-26T12:52:44.965Z,1.90
2022-07-26T12:55:32.477Z,1.98
2022-07-26T12:58:18.676Z,2.25
2022-07-26T13:01:04.955Z,1.90
2022-07-26T13:03:51.910Z,2.00
2022-07-26T13:06:38.159Z,2.30
2022-07-26T13:09:24.050Z,2.00
2022-07-26T13:12:11.507Z,2.03
2022-07-26T13:14:57.909Z,2.10
2022-07-26T13:17:43.989Z,1.90
2022-07-26T13:20:30.687Z,2.30
2022-07-26T13:23:21.436Z,2.13
2022-07-26T13:26:10.188Z,1.67
2022-07-26T13:28:57.625Z,2.03
2022-07-26T13:31:43.133Z,1.85
2022-07-26T13:34:34.756Z,1.70
2022-07-26T13:37:20.704Z,2.10
2022-07-26T13:40:06.848Z,2.10
2022-07-26T13:42:52.691Z,2.78
2022-07-26T13:45:38.530Z,2.42
2022-07-26T13:48:24.359Z,1.73
2022-07-26T13:51:09.742Z,2.67
2022-07-26T13:53:55.675Z,2.03
2022-07-26T13:56:41.830Z,3.05
2022-07-26T13:59:27.808Z,2.50
2022-07-26T14:02:14.019Z,2.33
2022-07-26T14:04:59.978Z,2.53
2022-07-26T14:07:45.981Z,2.13
2022-07-26T14:10:31.811Z,2.10
2022-07-26T14:13:17.882Z,1.80
2022-07-26T14:16:04.516Z,2.35
2022-07-26T14:18:55.162Z,2.20
2022-07-26T14:21:48.953Z,2.47
2022-07-26T14:24:45.180Z,2.08
2022-07-26T14:27:38.063Z,2.00
2022-07-26T14:30:29.622Z,2.15
2022-07-26T14:33:22.480Z,2.60
2022-07-26T14:36:14.289Z,2.30
2022-07-26T14:39:01.728Z,5.57
2022-07-26T14:42:12.506Z,5.45
2022-07-26T14:45:03.729Z,4.93
2022-07-26T14:48:01.118Z,5.18
2022-07-26T14:51:38.110Z,4.53
2022-07-26T14:54:26.679Z,3.63
2022-07-26T14:57:17.325Z,3.65
2022-07-26T15:03:31.907Z,3.28
2022-07-26T15:06:26.859Z,4.50
2022-07-26T15:09:16.106Z,3.72
2022-07-26T15:12:32.296Z,3.90
2022-07-26T15:15:21.106Z,2.85
2022-07-26T15:18:10.199Z,3.35
2022-07-26T15:21:12.569Z,2.58
2022-07-26T15:24:04.030Z,2.45
2022-07-26T15:26:53.847Z,2.17
2022-07-26T15:29:47.288Z,2.28
2022-07-26T15:32:36.191Z,2.15
2022-07-26T15:35:24.278Z,2.50
2022-07-26T15:39:23.491Z,2.10
2022-07-26T15:42:18.207Z,2.50
2022-07-26T15:45:32.776Z,2.17
2022-07-26T15:49:22.240Z,2.60
2022-07-26T15:51:48.375Z,2.33
2022-07-26T15:54:44.451Z,2.40
2022-07-26T15:57:39.933Z,2.20
2022-07-26T16:00:34.561Z,2.60
2022-07-26T16:03:25.794Z,2.50
2022-07-26T16:06:16.268Z,2.83
2022-07-26T16:09:20.276Z,2.70
2022-07-26T16:12:09.874Z,2.25
2022-07-26T16:14:57.354Z,3.72
2022-07-26T16:17:49.311Z,2.80
2022-07-26T16:20:37.898Z,2.47
2022-07-26T16:23:25.058Z,2.97
2022-07-26T16:26:12.195Z,3.15
2022-07-26T16:28:59.730Z,3.03
2022-07-26T16:31:47.315Z,2.65
2022-07-26T16:34:37.602Z,3.20
2022-07-26T16:37:24.885Z,2.95
2022-07-26T16:40:12.253Z,3.13
2022-07-26T16:43:00.165Z,4.05
2022-07-26T16:45:57.218Z,3.42
2022-07-26T16:48:46.535Z,3.13
2022-07-26T16:51:33.433Z,3.30
2022-07-26T16:54:21.246Z,3.15
2022-07-26T16:57:09.112Z,2.88
2022-07-26T16:59:56.356Z,2.90
2022-07-26T17:02:48.811Z,3.22
2022-07-26T17:05:45.486Z,3.00
2022-07-26T17:08:35.031Z,3.03
2022-07-26T17:12:38.462Z,3.20
2022-07-26T17:15:24.245Z,3.00
2022-07-26T17:18:25.221Z,3.25
2022-07-26T17:21:22.562Z,4.28
2022-07-26T17:24:16.908Z,4.38
2022-07-26T17:27:04.628Z,4.50
2022-07-26T17:29:54.027Z,5.47
2022-07-26T17:32:42.009Z,6.30
2022-07-26T17:35:42.848Z,6.20
2022-07-26T17:38:35.413Z,6.93
2022-07-26T17:41:32.649Z,6.65
2022-07-26T17:44:22.651Z,6.03
2022-07-26T17:47:18.122Z,6.28
2022-07-26T17:53:21.757Z,5.55
2022-07-26T17:56:17.875Z,5.90
2022-07-26T17:59:04.298Z,5.38
2022-07-26T18:01:53.985Z,6.10
2022-07-26T18:04:40.938Z,5.75
2022-07-26T18:07:27.235Z,5.40
2022-07-26T18:10:14.460Z,5.00
2022-07-26T18:13:00.334Z,5.85
2022-07-26T18:15:46.356Z,5.25
2022-07-26T18:18:32.711Z,5.38
2022-07-26T18:21:19.604Z,5.85
2022-07-26T18:24:16.957Z,5.18
2022-07-26T18:27:04.608Z,6.05
2022-07-26T18:29:50.424Z,5.15
2022-07-26T18:32:36.689Z,5.88
2022-07-26T18:35:24.385Z,5.85
2022-07-26T18:38:13.858Z,5.43
2022-07-26T18:41:00.775Z,6.07
2022-07-26T18:43:49.152Z,5.50
2022-07-26T18:46:34.767Z,5.97
2022-07-26T18:49:20.785Z,5.55
2022-07-26T18:52:08.738Z,5.60
2022-07-26T18:54:59.126Z,5.72
2022-07-26T18:57:45.824Z,5.63
2022-07-26T19:00:31.655Z,5.80
2022-07-26T19:03:20.009Z,5.20
2022-07-26T19:09:41.118Z,5.70
2022-07-26T19:12:54.757Z,5.95
2022-07-26T19:15:41.049Z,6.82
2022-07-26T19:18:27.628Z,6.63
2022-07-26T19:21:13.052Z,6.82
2022-07-26T19:23:58.894Z,6.93
2022-07-26T19:26:44.739Z,7.07
2022-07-26T19:29:30.189Z,6.22
2022-07-26T19:32:16.672Z,6.80
2022-07-26T19:35:02.825Z,6.85
2022-07-26T19:37:49.021Z,7.68
2022-07-26T19:40:35.430Z,7.68
2022-07-26T19:43:23.882Z,7.50
2022-07-26T19:46:23.775Z,7.40
2022-07-26T19:49:17.630Z,7.78
2022-07-26T19:52:07.195Z,7.43
2022-07-26T19:54:58.907Z,7.68
2022-07-26T19:57:44.721Z,8.43
2022-07-26T20:00:30.529Z,7.60
2022-07-26T20:03:16.228Z,8.32
2022-07-26T20:06:02.054Z,8.90
2022-07-26T20:08:49.902Z,7.25
2022-07-26T20:11:36.110Z,7.35
2022-07-26T20:14:35.186Z,8.00
2022-07-26T20:17:30.962Z,7.45
2022-07-26T20:20:18.183Z,7.90
2022-07-26T20:23:06.236Z,8.00
2022-07-26T20:25:51.980Z,7.38
2022-07-26T20:28:38.868Z,8.23
2022-07-26T20:31:25.219Z,7.78
2022-07-26T20:34:11.841Z,7.70
2022-07-26T20:37:00.314Z,7.88
2022-07-26T20:39:47.364Z,8.13
2022-07-26T20:42:34.142Z,8.70
2022-07-26T20:45:19.890Z,8.40
2022-07-26T20:48:06.624Z,8.00
2022-07-26T20:50:52.315Z,7.70
2022-07-26T20:53:37.580Z,7.00
2022-07-26T20:56:23.318Z,7.72
2022-07-26T20:59:10.191Z,7.85
2022-07-26T21:01:55.989Z,7.50
2022-07-26T21:04:41.922Z,7.60
2022-07-26T21:07:55.609Z,7.07
2022-07-26T21:10:33.062Z,7.53
2022-07-26T21:13:18.995Z,7.07
2022-07-26T21:16:06.317Z,6.43
2022-07-26T21:18:55.986Z,6.45
2022-07-26T21:21:48.972Z,6.93
2022-07-26T21:25:06.497Z,7.03
2022-07-26T21:27:56.387Z,6.30
2022-07-26T21:30:42.204Z,7.40
2022-07-26T21:33:28.091Z,7.00
2022-07-26T21:36:14.682Z,7.30
2022-07-26T21:39:00.694Z,7.07
2022-07-26T21:41:47.002Z,7.22
2022-07-26T21:44:32.527Z,7.60
2022-07-26T21:47:18.741Z,6.80
2022-07-26T21:50:11.611Z,8.38
2022-07-26T21:53:08.913Z,6.60
2022-07-26T21:56:14.504Z,6.88
2022-07-26T21:59:02.183Z,6.93
2022-07-26T22:01:55.526Z,7.63
2022-07-26T22:04:57.365Z,8.48
2022-07-26T22:07:49.306Z,6.88
2022-07-26T22:10:42.283Z,7.00
2022-07-26T22:13:48.104Z,7.25
2022-07-26T22:16:49.248Z,8.73
2022-07-26T22:19:35.592Z,7.60
2022-07-26T22:22:21.497Z,7.20
2022-07-26T22:25:07.902Z,6.97
2022-07-26T22:27:54.396Z,6.20
2022-07-26T22:30:40.759Z,6.05
2022-07-26T22:33:33.076Z,6.50
2022-07-26T22:36:29.224Z,5.88
2022-07-26T22:39:15.370Z,6.65
2022-07-26T22:42:16.251Z,5.70
2022-07-26T22:45:02.165Z,5.83
2022-07-26T22:47:56.749Z,4.38
2022-07-26T22:50:42.680Z,4.22
2022-07-26T22:53:28.548Z,4.20
2022-07-26T22:56:14.366Z,3.65
2022-07-26T22:59:05.106Z,3.67
2022-07-26T23:01:51.565Z,4.13
2022-07-26T23:04:37.217Z,3.63
2022-07-26T23:07:22.538Z,3.90
2022-07-26T23:10:10.981Z,3.90
2022-07-26T23:12:58.346Z,3.80
2022-07-26T23:15:47.262Z,3.92
2022-07-26T23:18:35.805Z,4.35
2022-07-26T23:21:21.256Z,4.03
2022-07-26T23:24:07.035Z,4.30
2022-07-26T23:26:52.573Z,5.10
2022-07-26T23:29:38.006Z,5.68
2022-07-26T23:32:23.451Z,4.32
2022-07-26T23:35:09.074Z,5.13
2022-07-26T23:37:54.720Z,5.53
2022-07-26T23:40:40.436Z,5.38
2022-07-26T23:43:27.568Z,5.68
2022-07-26T23:46:13.472Z,6.72
2022-07-26T23:48:58.880Z,6.45
2022-07-26T23:51:44.185Z,6.93
2022-07-26T23:54:29.671Z,6.28
2022-07-26T23:57:15.519Z,6.43
